Time;durP1;ratioP1;P1;durP2;ratioP2;P2;SDS_P1;SDS_P2;PMS_P1;PMS_P2;Temp;Humidity;BMP_temperature;BMP_pressure;BME280_temperature;BME280_humidity;BME280_pressure;Samples;Min_cycle;Max_cycle;Signal;HPM_P1;HPM_P2
2022/06/03 00:02:13;;;;;;;4.18;3.22;;;;;;;10.04;81.62;101844.72;5061730;28;20023;-81
2022/06/03 00:05:04;;;;;;;3.50;3.20;;;;;;;10.01;81.60;101834.28;5096080;28;20084;-81
2022/06/03 00:07:37;;;;;;;3.70;3.40;;;;;;;10.00;81.90;101834.28;5078160;28;20024;-81
2022/06/03 00:10:30;;;;;;;3.33;3.03;;;;;;;9.97;83.13;101825.56;5077782;28;20433;-81
2022/06/03 00:13:08;;;;;;;3.20;3.00;;;;;;;9.96;82.73;101831.63;5077841;28;20028;-81
2022/06/03 00:15:38;;;;;;;4.22;3.67;;;;;;;9.96;82.76;101830.78;5078408;28;20024;-81
2022/06/03 00:18:29;;;;;;;3.88;2.65;;;;;;;9.93;82.36;101828.16;5060998;28;20023;-82
2022/06/03 00:21:20;;;;;;;3.42;3.08;;;;;;;9.91;83.05;101829.88;5061310;28;20024;-81
2022/06/03 00:23:55;;;;;;;3.15;2.80;;;;;;;9.90;82.62;101838.59;5060921;28;20048;-81
2022/06/03 00:26:32;;;;;;;3.95;2.53;;;;;;;9.87;81.24;101844.66;5077160;28;20055;-82
2022/06/03 00:29:22;;;;;;;3.45;3.05;;;;;;;9.84;81.58;101844.63;5060992;28;20032;-81
2022/06/03 00:32:08;;;;;;;3.00;2.58;;;;;;;9.80;81.34;101842.88;5077350;28;20489;-81
2022/06/03 00:34:55;;;;;;;3.47;3.28;;;;;;;9.78;82.19;101839.41;5075731;28;20039;-81
2022/06/03 00:37:27;;;;;;;5.15;3.22;;;;;;;9.77;82.39;101835.03;5076964;28;20099;-82
2022/06/03 00:40:28;;;;;;;3.08;2.83;;;;;;;9.75;82.69;101834.16;5077220;28;20024;-81
2022/06/03 00:43:29;;;;;;;3.83;2.80;;;;;;;9.73;82.36;101835.88;5077472;28;20033;-81
2022/06/03 00:46:07;;;;;;;4.90;2.83;;;;;;;9.72;82.59;101836.72;5090379;28;20574;-81
2022/06/03 00:48:49;;;;;;;2.83;2.63;;;;;;;9.71;81.69;101832.41;5060786;28;20027;-81
2022/06/03 00:51:31;;;;;;;3.40;3.20;;;;;;;9.69;80.85;101824.53;5060405;28;20482;-81
2022/06/03 00:54:02;;;;;;;6.50;2.97;;;;;;;9.66;81.11;101826.28;5076884;28;20028;-81
2022/06/03 00:56:40;;;;;;;4.40;2.72;;;;;;;9.64;81.06;101832.34;5076862;28;20023;-81
2022/06/03 00:59:31;;;;;;;4.68;3.25;;;;;;;9.59;80.95;101831.44;5076950;28;20064;-81
2022/06/03 01:02:20;;;;;;;3.50;3.30;;;;;;;9.56;81.87;101831.44;5076760;28;20031;-81
2022/06/03 01:05:15;;;;;;;4.00;3.55;;;;;;;9.55;82.24;101829.69;5077024;28;20077;-81
2022/06/03 01:08:23;;;;;;;3.53;3.33;;;;;;;9.55;83.20;101834.91;5076501;28;20035;-81
2022/06/03 01:11:04;;;;;;;3.50;3.30;;;;;;;9.55;83.80;101837.50;5048407;28;20405;-82
2022/06/03 01:13:52;;;;;;;4.18;3.17;;;;;;;9.56;83.41;101838.41;5077899;28;20026;-81
2022/06/03 01:16:50;;;;;;;3.17;2.97;;;;;;;9.52;80.48;101832.28;5060939;28;20123;-81
2022/06/03 01:19:33;;;;;;;2.83;2.63;;;;;;;9.47;80.41;101831.38;5066984;28;20063;-82
2022/06/03 01:22:36;;;;;;;2.80;2.60;;;;;;;9.40;80.97;101827.00;5095906;28;20564;-81
2022/06/03 01:25:17;;;;;;;4.03;3.72;;;;;;;9.37;81.05;101835.66;5077139;28;20030;-82
2022/06/03 01:27:49;;;;;;;7.20;3.35;;;;;;;9.34;80.32;101837.38;5060621;28;20016;-82
2022/06/03 01:30:24;;;;;;;3.20;3.00;;;;;;;9.32;80.42;101839.09;5077927;28;20028;-82
2022/06/03 01:33:10;;;;;;;3.13;2.92;;;;;;;9.27;81.08;101845.16;5077573;28;20100;-81
2022/06/03 01:35:48;;;;;;;3.40;3.10;;;;;;;9.24;81.33;101836.44;5077644;28;20040;-82
2022/06/03 01:38:32;;;;;;;3.40;3.20;;;;;;;9.22;80.09;101828.59;5077650;28;20393;-81
2022/06/03 01:41:16;;;;;;;3.25;3.05;;;;;;;9.20;81.29;101834.66;5077034;28;20038;-82
2022/06/03 01:44:08;;;;;;;3.27;3.07;;;;;;;9.19;81.17;101832.91;5077495;28;20032;-82
2022/06/03 01:47:06;;;;;;;3.38;3.08;;;;;;;9.18;82.15;101836.41;5076517;28;20397;-82
2022/06/03 01:49:57;;;;;;;3.28;3.08;;;;;;;9.17;81.81;101824.22;5077394;28;20094;-82
2022/06/03 01:52:41;;;;;;;3.20;3.00;;;;;;;9.13;80.83;101820.69;5077814;28;20024;-82
2022/06/03 01:55:48;;;;;;;3.63;3.37;;;;;;;9.11;81.24;101828.50;5077214;28;20026;-82
2022/06/03 01:58:38;;;;;;;3.80;3.60;;;;;;;9.11;81.92;101819.84;5068391;28;20486;-81
2022/06/03 02:01:04;;;;;;;3.13;2.92;;;;;;;9.09;80.29;101822.44;5060248;28;20065;-82
2022/06/03 02:03:50;;;;;;;3.03;2.83;;;;;;;9.06;80.81;101826.72;5077095;28;20102;-81
2022/06/03 02:06:41;;;;;;;3.15;2.97;;;;;;;9.06;80.75;101831.94;5077250;28;20394;-81
2022/06/03 02:09:36;;;;;;;3.40;3.10;;;;;;;9.03;80.70;101831.94;5076951;28;20024;-82
2022/06/03 02:12:06;;;;;;;3.33;3.08;;;;;;;9.01;80.40;101829.28;5060233;28;20032;-82
2022/06/03 02:14:47;;;;;;;3.33;3.03;;;;;;;8.99;81.08;101835.38;5059958;28;20028;-82
2022/06/03 02:17:18;;;;;;;3.08;2.83;;;;;;;8.98;80.36;101831.00;5076547;28;20115;-82
2022/06/03 02:20:21;;;;;;;3.33;3.08;;;;;;;8.96;81.08;101828.41;5077270;28;20458;-82
2022/06/03 02:23:06;;;;;;;3.67;3.38;;;;;;;8.94;81.39;101828.38;5076038;28;20094;-82
2022/06/03 02:25:56;;;;;;;3.03;2.83;;;;;;;8.92;81.34;101830.09;5077175;28;20023;-82
2022/06/03 02:32:37;;;;;;;3.55;3.33;;;;;;;8.89;80.82;101829.19;5067828;28;20035;-81
2022/06/03 02:35:12;;;;;;;2.88;2.67;;;;;;;8.86;79.79;101834.38;5059940;28;20028;-82
2022/06/03 02:37:43;;;;;;;3.28;3.08;;;;;;;8.84;80.61;101830.91;5075350;28;20028;-82
2022/06/03 02:40:20;;;;;;;3.72;3.00;;;;;;;8.82;80.49;101827.38;5076840;28;20130;-82
2022/06/03 02:43:16;;;;;;;4.57;3.03;;;;;;;8.79;81.87;101828.22;5059818;28;20027;-82
2022/06/03 02:46:12;;;;;;;3.42;3.13;;;;;;;8.78;81.27;101821.25;5076245;28;20112;-82
2022/06/03 02:48:58;;;;;;;3.50;3.20;;;;;;;8.76;81.41;101823.00;5076643;28;20409;-81
2022/06/03 02:51:26;;;;;;;3.35;2.88;;;;;;;8.74;80.71;101828.19;5045338;28;20036;-82
2022/06/03 02:53:58;;;;;;;3.45;3.15;;;;;;;8.73;81.43;101828.19;5077004;28;20401;-82
2022/06/03 02:56:29;;;;;;;3.50;3.20;;;;;;;8.71;80.76;101815.16;5094465;28;20024;-79
2022/06/03 02:59:26;;;;;;;3.05;2.78;;;;;;;8.71;81.26;101824.69;5061997;28;20038;-79
2022/06/03 03:02:26;;;;;;;3.33;3.08;;;;;;;8.71;82.19;101824.69;5080687;28;20032;-82
2022/06/03 03:05:13;;;;;;;3.53;2.88;;;;;;;8.71;81.96;101820.38;5063844;28;20020;-82
2022/06/03 03:07:42;;;;;;;3.22;3.03;;;;;;;8.70;81.54;101813.41;5080379;28;20024;-81
2022/06/03 03:10:29;;;;;;;3.53;3.33;;;;;;;8.70;81.32;101822.94;5080300;28;20032;-81
2022/06/03 03:13:16;;;;;;;3.55;3.15;;;;;;;8.67;81.64;101834.22;5080831;28;20388;-81
2022/06/03 03:16:20;;;;;;;3.90;3.33;;;;;;;8.67;81.26;101833.31;5063466;28;20024;-79
2022/06/03 03:19:10;;;;;;;5.28;3.60;;;;;;;8.66;82.05;101828.97;5063959;28;20016;-82
2022/06/03 03:21:57;;;;;;;3.33;3.00;;;;;;;8.65;82.34;101829.84;5080247;28;20108;-79
2022/06/03 03:24:31;;;;;;;3.40;3.20;;;;;;;8.66;80.50;101821.16;5097337;28;20020;-79
2022/06/03 03:27:15;;;;;;;4.10;3.65;;;;;;;8.65;81.47;101827.25;5080331;28;20031;-79
2022/06/03 03:29:48;;;;;;;3.60;3.30;;;;;;;8.62;81.11;101831.56;5080066;28;20081;-82
2022/06/03 03:32:19;;;;;;;3.75;3.55;;;;;;;8.60;80.78;101825.47;5080041;28;20032;-82
2022/06/03 03:34:45;;;;;;;3.50;3.28;;;;;;;8.59;80.92;101825.47;5080279;28;20020;-82
2022/06/03 03:37:47;;;;;;;3.38;3.08;;;;;;;8.58;81.35;101823.69;5080240;28;20153;-82
2022/06/03 03:40:34;;;;;;;3.72;3.15;;;;;;;8.57;82.42;101822.81;5063553;28;20024;-82
2022/06/03 03:43:41;;;;;;;4.13;3.38;;;;;;;8.59;81.02;101828.06;5079907;28;20035;-82
2022/06/03 03:46:44;;;;;;;3.20;3.00;;;;;;;8.59;81.62;101831.53;5051567;28;20035;-81
2022/06/03 03:49:34;;;;;;;3.30;3.10;;;;;;;8.59;82.58;101818.50;5079775;28;20028;-81
2022/06/03 03:52:02;;;;;;;3.35;3.15;;;;;;;8.61;80.50;101831.53;5079350;28;20490;-82
2022/06/03 03:54:37;;;;;;;3.45;3.10;;;;;;;8.61;80.83;101828.94;5079343;28;20554;-81
2022/06/03 03:57:17;;;;;;;3.45;3.17;;;;;;;8.61;81.12;101844.56;5079518;28;20070;-81
2022/06/03 04:00:01;;;;;;;2.85;2.65;;;;;;;8.60;81.30;101838.50;5081949;28;20035;-82
2022/06/03 04:02:53;;;;;;;3.80;3.40;;;;;;;8.60;81.63;101835.88;5081348;28;20454;-81
2022/06/03 04:05:40;;;;;;;3.72;3.20;;;;;;;8.62;82.62;101836.75;5069565;28;20036;-80
2022/06/03 04:08:21;;;;;;;3.55;3.30;;;;;;;8.62;82.92;101841.97;5081151;28;20031;-80
2022/06/03 04:11:09;;;;;;;3.30;3.00;;;;;;;8.65;82.75;101850.69;5062682;28;20481;-80
2022/06/03 04:13:50;;;;;;;3.20;3.00;;;;;;;8.66;82.49;101860.22;5080382;28;20024;-80
2022/06/03 04:16:34;;;;;;;3.40;3.20;;;;;;;8.67;83.26;101855.06;5079535;28;20458;-77
2022/06/03 04:19:12;;;;;;;3.30;3.00;;;;;;;8.72;81.96;101860.31;5064262;28;20477;-80
2022/06/03 04:22:01;;;;;;;3.10;2.90;;;;;;;8.74;81.75;101861.16;5080963;28;20057;-80
2022/06/03 04:24:45;;;;;;;3.63;3.33;;;;;;;8.77;81.47;101861.22;5071931;28;20056;-80
2022/06/03 04:27:29;;;;;;;3.30;3.10;;;;;;;8.77;82.19;101864.69;5081003;28;20016;-80
2022/06/03 04:30:11;;;;;;;3.90;3.70;;;;;;;8.76;83.62;101860.34;5080382;28;20390;-80
2022/06/03 04:32:55;;;;;;;4.20;3.88;;;;;;;8.78;83.94;101860.34;5079754;28;20020;-80
2022/06/03 04:35:58;;;;;;;4.60;3.60;;;;;;;8.82;84.25;101859.53;5080697;28;20020;-80
2022/06/03 04:38:46;;;;;;;3.85;3.50;;;;;;;8.87;84.93;101854.38;5080664;28;20034;-80
2022/06/03 04:41:30;;;;;;;5.45;3.78;;;;;;;8.92;84.90;101853.53;5049394;28;20143;-80
2022/06/03 04:44:02;;;;;;;3.75;3.47;;;;;;;8.96;84.97;101857.06;5081062;28;20024;-79
2022/06/03 04:46:50;;;;;;;3.47;3.17;;;;;;;9.02;85.65;101859.72;5080626;28;20122;-79
2022/06/03 04:49:37;;;;;;;3.83;3.53;;;;;;;9.05;85.21;101851.94;5080078;28;20093;-80
2022/06/03 04:52:30;;;;;;;4.13;3.88;;;;;;;9.09;84.68;101847.59;5078427;28;20516;-80
2022/06/03 04:55:24;;;;;;;3.75;3.50;;;;;;;9.13;85.39;101849.38;5061775;28;20031;-78
2022/06/03 04:58:01;;;;;;;4.78;3.88;;;;;;;9.18;84.93;101846.81;5061959;28;20020;-80
2022/06/03 05:01:04;;;;;;;4.28;3.75;;;;;;;9.21;85.57;101847.69;5078542;28;20085;-80
2022/06/03 05:04:13;;;;;;;5.35;4.85;;;;;;;9.25;85.18;101849.47;5078378;28;20023;-82
2022/06/03 05:06:56;;;;;;;4.97;4.20;;;;;;;9.30;85.52;101847.78;5079943;28;20044;-81
2022/06/03 05:09:27;;;;;;;4.53;3.97;;;;;;;9.34;85.53;101838.25;5080284;28;20028;-81
2022/06/03 05:12:15;;;;;;;5.53;4.32;;;;;;;9.38;85.35;101845.25;5077719;28;20024;-81
2022/06/03 05:15:10;;;;;;;4.50;4.20;;;;;;;9.42;85.48;101847.00;5077897;28;20520;-80
2022/06/03 05:17:54;;;;;;;4.72;4.32;;;;;;;9.45;85.62;101847.03;5077940;28;20016;-81
2022/06/03 05:20:35;;;;;;;5.45;4.80;;;;;;;9.49;84.92;101850.53;5095446;28;20032;-81
2022/06/03 05:23:19;;;;;;;6.05;5.53;;;;;;;9.53;85.41;101848.78;5077873;28;20528;-81
2022/06/03 05:26:09;;;;;;;5.80;4.95;;;;;;;9.57;85.74;101850.56;5077240;28;20027;-81
2022/06/03 05:29:08;;;;;;;6.93;5.43;;;;;;;9.61;85.73;101847.09;5095596;28;20024;-81
2022/06/03 05:31:43;;;;;;;6.68;5.53;;;;;;;9.64;85.59;101842.78;5060470;28;20066;-81
2022/06/03 05:34:42;;;;;;;7.38;5.80;;;;;;;9.71;85.95;101853.28;5077582;28;20028;-80
2022/06/03 05:37:32;;;;;;;6.82;6.22;;;;;;;9.75;85.72;101847.22;5076629;28;20185;-81
2022/06/03 05:40:10;;;;;;;6.15;5.57;;;;;;;9.78;85.88;101842.88;5094961;28;20539;-81
2022/06/03 05:43:14;;;;;;;6.55;5.88;;;;;;;9.83;86.09;101840.28;5094667;28;20039;-81
2022/06/03 05:45:54;;;;;;;6.25;5.75;;;;;;;9.87;86.35;101838.56;5065416;28;20067;-81
2022/06/03 05:48:43;;;;;;;7.10;5.47;;;;;;;9.91;86.57;101841.22;5076618;28;20108;-81
2022/06/03 05:51:14;;;;;;;4.93;4.53;;;;;;;9.93;86.71;101831.63;5077056;28;20028;-81
2022/06/03 05:53:48;;;;;;;5.63;5.10;;;;;;;9.97;86.39;101835.13;5076616;28;20425;-81
2022/06/03 05:56:51;;;;;;;5.80;4.93;;;;;;;10.01;86.10;101836.00;5076888;28;20490;-81
2022/06/03 05:59:29;;;;;;;5.35;5.05;;;;;;;10.05;86.34;101837.75;5077142;28;20057;-81
2022/06/03 06:02:07;;;;;;;5.63;5.07;;;;;;;10.09;86.48;101834.28;5076653;28;20016;-81
2022/06/03 06:04:57;;;;;;;5.05;4.70;;;;;;;10.13;86.14;101836.09;5076057;28;20073;-81
2022/06/03 06:07:44;;;;;;;5.95;5.45;;;;;;;10.15;86.35;101834.34;5076202;28;20073;-80
2022/06/03 06:10:31;;;;;;;7.57;5.97;;;;;;;10.21;85.94;101833.47;5059841;28;20130;-81
2022/06/03 06:13:23;;;;;;;7.00;6.30;;;;;;;10.23;86.63;101832.63;5060356;28;20095;-81
2022/06/03 06:16:03;;;;;;;7.97;7.18;;;;;;;10.27;86.74;101829.16;5054238;28;20044;-81
2022/06/03 06:18:56;;;;;;;7.93;7.25;;;;;;;10.30;86.59;101818.69;5077322;28;20027;-81
2022/06/03 06:21:37;;;;;;;6.57;6.05;;;;;;;10.35;86.80;101826.59;5077573;28;20020;-81
2022/06/03 06:24:34;;;;;;;7.47;6.63;;;;;;;10.38;86.46;101830.97;5077489;28;20024;-81
2022/06/03 06:27:33;;;;;;;7.93;7.20;;;;;;;10.41;86.53;101831.84;5067007;28;20053;-81
2022/06/03 06:30:19;;;;;;;11.30;7.18;;;;;;;10.44;86.42;101829.25;5078430;28;20069;-81
2022/06/03 06:32:53;;;;;;;8.55;6.70;;;;;;;10.49;85.90;101831.84;5078231;28;20171;-81
2022/06/03 06:35:37;;;;;;;6.18;5.72;;;;;;;10.53;87.14;101825.78;5078355;28;20028;-81
2022/06/03 06:38:08;;;;;;;7.40;6.60;;;;;;;10.57;86.23;101827.53;5078452;28;20024;-81
2022/06/03 06:40:50;;;;;;;6.80;6.13;;;;;;;10.61;86.21;101823.19;5078829;28;20390;-81
2022/06/03 06:43:30;;;;;;;7.10;6.20;;;;;;;10.63;86.90;101822.31;5081638;28;20028;-81
2022/06/03 06:46:16;;;;;;;7.00;5.57;;;;;;;10.69;86.57;101820.56;5060857;28;20498;-81
2022/06/03 06:48:46;;;;;;;6.43;5.88;;;;;;;10.72;86.05;101820.59;5094221;28;20512;-81
2022/06/03 06:51:42;;;;;;;6.93;5.97;;;;;;;10.73;86.21;101822.31;5060089;28;20070;-81
2022/06/03 06:54:18;;;;;;;6.70;5.82;;;;;;;10.77;86.61;101829.28;5105094;28;20371;-81
2022/06/03 06:56:51;;;;;;;6.43;5.90;;;;;;;10.81;86.06;101825.78;5078149;28;20043;-80
2022/06/03 06:59:31;;;;;;;6.35;5.78;;;;;;;10.82;85.98;101825.81;5077489;28;20389;-81
2022/06/03 07:02:06;;;;;;;6.80;6.00;;;;;;;10.85;86.07;101827.53;5087899;28;20046;-81
2022/06/03 07:04:37;;;;;;;7.88;6.63;;;;;;;10.88;86.47;101840.63;5077119;28;20027;-80
2022/06/03 07:07:17;;;;;;;7.88;7.07;;;;;;;10.92;85.77;101839.78;5077365;28;20031;-81
2022/06/03 07:09:46;;;;;;;6.85;5.45;;;;;;;10.97;85.02;101843.22;5095783;28;20591;-80
2022/06/03 07:12:14;;;;;;;6.55;5.95;;;;;;;11.02;84.58;101845.00;5093462;28;20027;-79
2022/06/03 07:15:07;;;;;;;6.50;5.78;;;;;;;11.07;85.08;101843.25;5077144;28;20023;-81
2022/06/03 07:20:50;;;;;;;5.45;5.00;;;;;;;11.18;85.16;101840.63;5074153;28;20455;-81
2022/06/03 07:23:41;;;;;;;9.10;5.20;;;;;;;11.21;84.07;101830.16;5078104;28;20020;-80
2022/06/03 07:26:13;;;;;;;5.38;4.88;;;;;;;11.23;84.68;101824.06;5078224;28;20065;-82
2022/06/03 07:28:57;;;;;;;5.10;4.70;;;;;;;11.28;84.00;101826.69;5094141;28;20026;-82
2022/06/03 07:31:35;;;;;;;5.10;4.80;;;;;;;11.31;84.21;101822.31;5077833;28;20373;-82
2022/06/03 07:34:30;;;;;;;7.35;4.80;;;;;;;11.33;81.86;101807.50;5096986;28;20035;-82
2022/06/03 07:37:10;;;;;;;4.95;4.35;;;;;;;11.38;82.98;101812.69;5077505;28;20028;-82
2022/06/03 07:39:55;;;;;;;5.35;4.82;;;;;;;11.41;82.51;101802.25;5112263;28;20431;-81
2022/06/03 07:42:36;;;;;;;5.93;5.38;;;;;;;11.46;82.64;101797.84;5077458;28;20020;-81
2022/06/03 07:45:26;;;;;;;5.85;4.50;;;;;;;11.52;82.40;101802.22;5095424;28;20542;-81
2022/06/03 07:47:54;;;;;;;5.43;4.97;;;;;;;11.57;83.03;101797.84;5098710;28;20019;-82
2022/06/03 07:50:21;;;;;;;5.85;5.35;;;;;;;11.60;82.80;101792.63;5081386;28;20466;-82
2022/06/03 07:53:28;;;;;;;6.65;5.10;;;;;;;11.67;82.04;101791.72;5081299;28;20020;-82
2022/06/03 07:55:55;;;;;;;5.18;4.72;;;;;;;11.72;82.14;101793.44;4997671;28;20025;-80
2022/06/03 07:58:22;;;;;;;7.10;5.20;;;;;;;11.76;82.51;101793.41;5066262;28;20421;-81
2022/06/03 08:00:48;;;;;;;7.13;5.40;;;;;;;11.82;82.59;101787.28;5082225;28;20497;-81
2022/06/03 08:03:36;;;;;;;9.82;6.15;;;;;;;11.87;82.05;101789.91;5082401;28;20020;-81
2022/06/03 08:06:05;;;;;;;7.28;5.00;;;;;;;11.92;82.04;101796.00;5086755;28;20088;-81
2022/06/03 08:11:17;;;;;;;4.47;4.15;;;;;;;12.00;80.59;101789.00;5101481;28;20026;-82
2022/06/03 08:13:49;;;;;;;4.90;4.43;;;;;;;12.07;79.57;101784.59;5117189;28;20456;-82
2022/06/03 08:16:22;;;;;;;4.20;3.72;;;;;;;12.13;79.75;101788.06;5081330;28;20023;-82
2022/06/03 08:18:47;;;;;;;4.43;4.03;;;;;;;12.20;79.83;101788.88;5098330;28;20016;-82
2022/06/03 08:21:19;;;;;;;4.82;4.10;;;;;;;12.23;78.66;101794.13;5081847;28;20526;-81
2022/06/03 08:23:45;;;;;;;5.38;4.07;;;;;;;12.29;79.59;101787.97;5098295;28;20023;-82
2022/06/03 08:26:16;;;;;;;4.55;3.80;;;;;;;12.33;78.48;101795.78;5081595;28;20103;-82
2022/06/03 08:28:48;;;;;;;6.70;4.35;;;;;;;12.39;78.15;101791.41;5081678;28;20027;-81
2022/06/03 08:31:13;;;;;;;9.52;4.18;;;;;;;12.45;77.78;101788.75;5081484;28;20034;-82
2022/06/03 08:33:45;;;;;;;6.80;3.70;;;;;;;12.50;75.92;101797.44;5081418;28;20560;-81
2022/06/03 08:36:14;;;;;;;4.60;3.63;;;;;;;12.55;77.32;101794.81;5081945;28;20469;-82
2022/06/03 08:38:48;;;;;;;7.32;3.40;;;;;;;12.60;77.71;101793.03;5080763;28;20020;-82
2022/06/03 08:41:40;;;;;;;3.63;2.80;;;;;;;12.65;78.67;101788.59;5098027;28;20032;-82
2022/06/03 08:44:11;;;;;;;3.97;3.00;;;;;;;12.67;77.91;101792.94;5096527;28;20031;-82
2022/06/03 08:46:42;;;;;;;3.50;3.30;;;;;;;12.75;76.93;101794.63;5097841;28;20079;-81
2022/06/03 08:49:12;;;;;;;3.70;3.45;;;;;;;12.81;77.25;101797.22;5097957;28;20028;-81
2022/06/03 08:51:37;;;;;;;3.75;3.38;;;;;;;12.89;76.05;101795.41;5081310;28;20034;-81
2022/06/03 08:54:26;;;;;;;3.20;2.90;;;;;;;12.94;76.58;101788.38;5097886;28;20024;-82
2022/06/03 08:56:54;;;;;;;3.50;3.20;;;;;;;13.00;77.57;101788.31;5079640;28;20073;-81
2022/06/03 08:59:31;;;;;;;3.10;2.90;;;;;;;13.03;76.80;101790.03;5079732;28;20033;-81
2022/06/03 09:01:59;;;;;;;3.67;3.35;;;;;;;13.08;76.74;101780.38;5080365;28;20605;-82
2022/06/03 09:04:31;;;;;;;6.45;2.92;;;;;;;13.14;76.21;101784.69;5096722;28;20023;-81
2022/06/03 09:07:23;;;;;;;3.40;3.10;;;;;;;13.22;77.07;101793.34;5079897;28;20035;-81
2022/06/03 09:10:11;;;;;;;4.03;3.00;;;;;;;13.27;77.66;101790.72;5080321;28;20030;-81
2022/06/03 09:12:51;;;;;;;4.85;3.03;;;;;;;13.31;76.95;101793.28;5080056;28;20027;-81
2022/06/03 09:15:25;;;;;;;4.97;2.83;;;;;;;13.38;77.24;101794.13;5080190;28;20408;-81
2022/06/03 09:18:03;;;;;;;4.20;2.88;;;;;;;13.45;76.57;101792.28;5079653;28;20046;-81
2022/06/03 09:20:44;;;;;;;4.13;3.03;;;;;;;13.53;77.30;101787.84;5079440;28;20481;-81
2022/06/03 09:23:13;;;;;;;3.72;2.55;;;;;;;13.59;75.37;101790.38;5096395;28;20048;-81
2022/06/03 09:25:43;;;;;;;4.45;3.38;;;;;;;13.63;75.05;101786.84;5079805;28;20049;-81
2022/06/03 09:28:12;;;;;;;2.95;2.75;;;;;;;13.66;74.72;101778.94;5079552;28;20090;-82
2022/06/03 09:30:39;;;;;;;2.80;2.60;;;;;;;13.72;75.73;101777.13;5079342;28;20177;-81
2022/06/03 09:33:06;;;;;;;3.60;2.65;;;;;;;13.76;75.98;101773.56;5079762;28;20024;-81
2022/06/03 09:35:34;;;;;;;2.47;2.17;;;;;;;13.80;75.79;101770.88;5079300;28;20112;-81
2022/06/03 09:38:01;;;;;;;3.35;2.45;;;;;;;13.82;74.03;101774.34;5079361;28;20080;-81
2022/06/03 09:40:29;;;;;;;3.00;2.80;;;;;;;13.88;75.11;101769.91;5079665;28;20065;-82
2022/06/03 09:43:15;;;;;;;3.22;2.92;;;;;;;13.91;75.10;101760.25;5079259;28;20030;-81
2022/06/03 09:45:45;;;;;;;2.70;2.50;;;;;;;13.94;73.27;101756.72;5078872;28;20084;-81
2022/06/03 09:48:11;;;;;;;2.47;2.28;;;;;;;14.00;71.03;101757.50;5079419;28;20051;-81
2022/06/03 09:50:39;;;;;;;2.15;1.73;;;;;;;14.04;70.73;101758.31;5079149;28;20096;-81
2022/06/03 09:53:09;;;;;;;1.80;1.70;;;;;;;14.09;70.01;101760.88;5078994;28;20026;-80
2022/06/03 09:55:39;;;;;;;3.75;2.53;;;;;;;14.15;70.38;101755.53;5078741;28;20106;-80
2022/06/03 09:58:06;;;;;;;2.72;2.42;;;;;;;14.21;69.55;101750.19;5079802;28;20024;-80
2022/06/03 10:00:41;;;;;;;3.22;2.40;;;;;;;14.28;70.50;101746.59;5078938;28;20024;-80
2022/06/03 10:03:06;;;;;;;2.17;1.98;;;;;;;14.34;70.38;101735.09;5079261;28;20060;-81
2022/06/03 10:05:32;;;;;;;1.70;1.60;;;;;;;14.40;70.12;101735.03;5078723;28;20059;-81
2022/06/03 10:08:04;;;;;;;5.32;2.08;;;;;;;14.48;71.00;101737.50;5077382;28;20118;-81
2022/06/03 10:13:14;;;;;;;3.13;1.70;;;;;;;14.65;69.71;101735.50;5099286;28;20618;-81
2022/06/03 10:15:45;;;;;;;2.50;2.30;;;;;;;14.72;69.98;101731.03;5078312;28;20039;-81
2022/06/03 10:18:21;;;;;;;2.38;1.85;;;;;;;14.80;65.94;101736.16;5078483;28;20026;-80
2022/06/03 10:20:48;;;;;;;1.90;1.42;;;;;;;14.83;64.15;101733.47;5078178;28;20080;-81
2022/06/03 10:23:14;;;;;;;1.65;1.23;;;;;;;14.87;60.35;101724.63;5078478;28;20019;-81
2022/06/03 10:25:42;;;;;;;2.53;1.10;;;;;;;14.93;62.91;101724.53;5078376;28;20056;-81
2022/06/03 10:28:09;;;;;;;1.73;1.10;;;;;;;14.98;60.27;101730.59;5078230;28;20503;-81
2022/06/03 10:30:37;;;;;;;1.05;0.95;;;;;;;15.03;59.61;101738.38;5078620;28;20023;-81
2022/06/03 10:33:05;;;;;;;1.00;0.90;;;;;;;15.06;60.60;101729.56;5078186;28;20019;-81
2022/06/03 10:35:37;;;;;;;0.63;0.63;;;;;;;15.08;59.16;101733.03;5078247;28;20027;-80
2022/06/03 10:38:04;;;;;;;1.40;1.15;;;;;;;15.11;58.05;101725.09;5078387;28;20016;-81
2022/06/03 10:40:31;;;;;;;1.20;1.10;;;;;;;15.18;58.73;101713.53;5078043;28;20020;-81
2022/06/03 10:42:59;;;;;;;1.00;0.95;;;;;;;15.21;60.94;101713.47;5078327;28;20055;-81
2022/06/03 10:45:43;;;;;;;1.20;1.10;;;;;;;15.27;61.15;101721.25;5078469;28;20026;-81
2022/06/03 10:48:23;;;;;;;2.28;1.02;;;;;;;15.30;57.66;101713.31;5077966;28;20127;-81
2022/06/03 10:50:49;;;;;;;2.85;0.82;;;;;;;15.35;58.47;101716.72;5077993;28;20035;-81
2022/06/03 11:01:48;;;;;;;1.00;1.00;;;;;;;15.60;57.50;101700.41;5098085;28;20038;-81
2022/06/03 11:04:25;;;;;;;0.85;0.85;;;;;;;15.65;55.65;101693.28;5078336;28;20024;-81
2022/06/03 11:06:51;;;;;;;0.68;0.68;;;;;;;15.71;55.87;101690.50;5094591;28;20096;-81
2022/06/03 11:09:17;;;;;;;0.93;0.93;;;;;;;15.79;56.70;101689.47;5078052;28;20024;-80
2022/06/03 11:11:47;;;;;;;1.83;0.60;;;;;;;15.84;54.91;101690.25;5077791;28;20029;-81
2022/06/03 11:14:27;;;;;;;0.93;0.77;;;;;;;15.93;55.27;101692.69;5078592;28;20110;-81
2022/06/03 11:17:17;;;;;;;0.75;0.75;;;;;;;16.03;53.82;101693.34;5095202;28;20449;-81
2022/06/03 11:19:49;;;;;;;3.33;0.80;;;;;;;16.15;53.91;101692.19;5115438;28;20366;-81
2022/06/03 11:22:17;;;;;;;4.22;0.88;;;;;;;16.22;54.81;101685.88;5081315;28;20027;-80
2022/06/03 11:24:58;;;;;;;0.75;0.75;;;;;;;16.32;52.77;101681.22;5099244;28;20026;-81
2022/06/03 11:27:28;;;;;;;0.50;0.50;;;;;;;16.44;52.96;101678.28;5099313;28;20024;-81
2022/06/03 11:29:57;;;;;;;0.80;0.73;;;;;;;16.50;49.03;101672.03;5081731;28;20536;-80
2022/06/03 11:32:24;;;;;;;1.05;0.68;;;;;;;16.56;51.19;101674.47;5099138;28;20428;-80
2022/06/03 11:35:15;;;;;;;0.82;0.68;;;;;;;16.62;52.25;101671.72;5081567;28;20016;-80
2022/06/03 11:37:44;;;;;;;1.77;0.60;;;;;;;16.72;51.55;101661.78;5082383;28;20016;-80
2022/06/03 11:40:23;;;;;;;0.52;0.52;;;;;;;16.78;50.60;101655.47;5084425;28;20374;-79
2022/06/03 11:42:54;;;;;;;1.98;0.80;;;;;;;16.88;50.07;101662.22;5082266;28;20023;-80
2022/06/03 11:45:22;;;;;;;0.75;0.75;;;;;;;16.97;51.90;101659.34;5084677;28;20115;-81
2022/06/03 11:47:56;;;;;;;1.42;0.88;;;;;;;17.05;53.78;101660.00;5082490;28;20041;-80
2022/06/03 11:50:25;;;;;;;1.10;1.00;;;;;;;17.14;53.73;101658.00;5081912;28;20028;-80
2022/06/03 11:52:52;;;;;;;1.23;0.57;;;;;;;17.22;49.23;101653.41;5084029;28;20050;-80
2022/06/03 11:55:19;;;;;;;0.70;0.50;;;;;;;17.22;47.42;101656.03;5084377;28;20015;-80
2022/06/03 11:57:51;;;;;;;0.52;0.43;;;;;;;17.29;46.83;101646.16;5084179;28;20027;-80
2022/06/03 12:00:19;;;;;;;0.68;0.63;;;;;;;17.30;45.81;101639.97;5082088;28;20030;-80
2022/06/03 12:02:50;;;;;;;1.08;0.65;;;;;;;17.34;46.71;101644.25;5079671;28;20029;-80
2022/06/03 12:05:21;;;;;;;0.55;0.55;;;;;;;17.38;47.29;101636.19;5116548;28;20239;-80
2022/06/03 12:08:01;;;;;;;0.50;0.50;;;;;;;17.42;44.94;101633.47;5080733;28;20061;-80
2022/06/03 12:10:54;;;;;;;0.50;0.50;;;;;;;17.46;46.46;101627.19;5098296;28;20019;-80
2022/06/03 12:13:28;;;;;;;0.60;0.57;;;;;;;17.49;44.92;101620.03;5097934;28;20027;-80
2022/06/03 12:15:53;;;;;;;0.53;0.50;;;;;;;17.55;46.88;101618.97;5081486;28;20393;-80
2022/06/03 12:18:35;;;;;;;0.85;0.70;;;;;;;17.63;45.77;101614.31;5097699;28;20076;-80
2022/06/03 12:21:07;;;;;;;0.63;0.60;;;;;;;17.69;44.04;101614.09;5097836;28;20028;-80
2022/06/03 12:23:33;;;;;;;0.73;0.68;;;;;;;17.69;42.75;101603.53;5097995;28;20038;-80
2022/06/03 12:25:58;;;;;;;1.17;0.60;;;;;;;17.68;42.86;101599.19;5097462;28;20465;-80
2022/06/03 12:28:36;;;;;;;1.90;0.70;;;;;;;17.72;43.17;101608.75;5115845;28;20015;-80
2022/06/03 12:31:15;;;;;;;0.60;0.47;;;;;;;17.84;45.08;101601.34;5096766;28;20049;-79
2022/06/03 12:34:03;;;;;;;2.17;0.50;;;;;;;17.94;47.72;101604.56;5080957;28;20024;-80
2022/06/03 12:36:47;;;;;;;0.50;0.50;;;;;;;18.13;46.44;101602.19;5081133;28;20020;-80
2022/06/03 12:39:49;;;;;;;0.77;0.50;;;;;;;18.23;47.15;101593.88;5100049;28;20054;-80
2022/06/03 12:42:27;;;;;;;0.63;0.60;;;;;;;18.33;45.74;101597.09;5101431;28;20027;-80
2022/06/03 12:44:56;;;;;;;0.52;0.52;;;;;;;18.47;46.09;101596.59;5104485;28;20023;-80
2022/06/03 12:47:27;;;;;;;1.05;0.40;;;;;;;18.56;44.51;101584.84;5107100;28;20031;-80
2022/06/03 12:49:57;;;;;;;0.47;0.47;;;;;;;18.67;42.05;101581.81;5084972;28;20042;-80